createdAt,value
2018-07-17T00:00:28.938Z,95850.15
2018-07-17T00:03:00.158Z,95847.91
2018-07-17T00:05:30.546Z,95845.86
2018-07-17T00:08:00.930Z,95849.39
2018-07-17T00:10:31.578Z,95847.06
2018-07-17T00:13:02.677Z,95854.56
2018-07-17T00:15:33.028Z,95859.31
2018-07-17T00:18:03.400Z,95856.00
2018-07-17T00:20:34.399Z,95852.52
2018-07-17T00:23:04.886Z,95858.53
2018-07-17T00:25:35.271Z,95855.77
2018-07-17T00:28:05.612Z,95853.95
2018-07-17T00:30:36.038Z,95861.78
2018-07-17T00:33:06.422Z,95854.75
2018-07-17T00:35:36.864Z,95865.03
2018-07-17T00:38:07.246Z,95867.41
2018-07-17T00:40:38.326Z,95857.23
2018-07-17T00:43:08.370Z,95859.69
2018-07-17T00:45:38.731Z,95857.95
2018-07-17T00:48:09.644Z,95859.93
2018-07-17T00:50:40.009Z,95862.81
2018-07-17T00:53:10.680Z,95866.30
2018-07-17T00:55:40.688Z,95865.28
2018-07-17T00:58:10.778Z,95859.06
2018-07-17T01:00:44.500Z,95855.81
2018-07-17T01:03:20.102Z,95853.02
2018-07-17T01:05:55.226Z,95852.91
2018-07-17T01:08:30.191Z,95849.52
2018-07-17T01:11:05.221Z,95852.62
2018-07-17T01:14:08.577Z,95850.46
2018-07-17T01:16:39.260Z,95850.14
2018-07-17T01:19:09.106Z,95850.66
2018-07-17T01:21:38.950Z,95850.23
2018-07-17T01:24:09.243Z,95849.45
2018-07-17T01:26:39.058Z,95842.27
2018-07-17T01:29:08.941Z,95847.84
2018-07-17T01:31:39.512Z,95839.70
2018-07-17T01:34:09.919Z,95842.70
2018-07-17T01:36:40.490Z,95843.47
2018-07-17T01:39:11.161Z,95847.61
2018-07-17T01:41:41.599Z,95846.55
2018-07-17T01:44:15.630Z,95840.91
2018-07-17T01:46:46.792Z,95844.33
2018-07-17T01:49:16.891Z,95842.34
2018-07-17T01:51:46.803Z,95843.30
2018-07-17T01:54:16.625Z,95844.08
2018-07-17T01:56:46.523Z,95848.68
2018-07-17T01:59:16.415Z,95852.33
2018-07-17T02:01:46.480Z,95847.48
2018-07-17T02:04:16.304Z,95843.28
2018-07-17T02:06:46.518Z,95850.28
2018-07-17T02:09:16.372Z,95845.47
2018-07-17T02:11:46.304Z,95849.08
2018-07-17T02:14:16.176Z,95848.73
2018-07-17T02:16:46.153Z,95851.02
2018-07-17T02:19:15.994Z,95859.73
2018-07-17T02:21:46.232Z,95860.72
2018-07-17T02:24:16.029Z,95860.39
2018-07-17T02:26:45.908Z,95860.67
2018-07-17T02:29:15.873Z,95861.36
2018-07-17T02:31:45.677Z,95859.33
2018-07-17T02:34:15.480Z,95853.34
2018-07-17T02:36:45.315Z,95853.67
2018-07-17T02:39:15.199Z,95859.39
2018-07-17T02:41:45.039Z,95861.06
2018-07-17T02:44:14.890Z,95859.75
2018-07-17T02:46:44.727Z,95865.69
2018-07-17T02:49:14.544Z,95868.45
2018-07-17T02:51:44.535Z,95869.88
2018-07-17T02:54:14.381Z,95876.19
2018-07-17T02:56:44.193Z,95875.23
2018-07-17T02:59:14.009Z,95881.75
2018-07-17T03:01:44.147Z,95883.55
2018-07-17T03:04:14.271Z,95883.95
2018-07-17T03:06:44.289Z,95888.03
2018-07-17T03:09:14.121Z,95897.68
2018-07-17T03:11:43.941Z,95897.17
2018-07-17T03:14:13.914Z,95896.34
2018-07-17T03:16:43.962Z,95895.14
2018-07-17T03:19:13.839Z,95890.61
2018-07-17T03:21:43.734Z,95891.34
2018-07-17T03:24:13.558Z,95900.65
2018-07-17T03:26:43.833Z,95902.72
2018-07-17T03:29:13.911Z,95904.89
2018-07-17T03:31:43.719Z,95904.88
2018-07-17T03:34:13.626Z,95906.55
2018-07-17T03:36:43.419Z,95903.77
2018-07-17T03:39:13.319Z,95910.47
2018-07-17T03:41:43.157Z,95907.45
2018-07-17T03:44:12.980Z,95910.63
2018-07-17T03:46:42.813Z,95905.89
2018-07-17T03:49:12.646Z,95909.84
2018-07-17T03:51:42.852Z,95915.41
2018-07-17T03:54:12.699Z,95911.37
2018-07-17T03:56:42.533Z,95915.92
2018-07-17T03:59:12.341Z,95911.19
2018-07-17T04:02:21.723Z,95924.75
2018-07-17T04:04:51.553Z,95927.09
2018-07-17T04:07:21.419Z,95923.55
2018-07-17T04:09:51.299Z,95930.46
2018-07-17T04:12:21.147Z,95930.97
2018-07-17T04:14:50.959Z,95938.32
2018-07-17T04:17:20.815Z,95935.56
2018-07-17T04:19:50.661Z,95935.92
2018-07-17T04:22:20.638Z,95940.39
2018-07-17T04:24:50.663Z,95939.91
2018-07-17T04:28:21.209Z,95948.20
2018-07-17T04:30:51.041Z,95956.70
2018-07-17T04:33:21.293Z,95957.28
2018-07-17T04:35:51.156Z,95959.30
2018-07-17T04:38:22.117Z,95969.31
2018-07-17T04:40:52.864Z,95966.66
2018-07-17T04:43:23.196Z,95970.06
2018-07-17T04:45:53.579Z,95961.04
2018-07-17T04:48:24.014Z,95970.32
2018-07-17T04:50:55.060Z,95974.50
2018-07-17T04:55:53.410Z,95976.41
2018-07-17T04:58:23.873Z,95974.53
2018-07-17T05:00:54.008Z,95981.27
2018-07-17T05:03:24.338Z,95984.98
2018-07-17T05:09:30.822Z,95988.75
2018-07-17T05:12:00.924Z,95991.37
2018-07-17T05:14:31.101Z,95992.34
2018-07-17T05:17:01.257Z,95986.41
2018-07-17T05:20:22.868Z,95989.52
2018-07-17T05:22:53.586Z,95992.05
2018-07-17T05:25:24.096Z,96001.72
2018-07-17T05:27:54.892Z,95994.03
2018-07-17T05:30:25.072Z,96001.73
2018-07-17T05:32:55.950Z,96004.79
2018-07-17T05:35:26.136Z,95998.04
2018-07-17T05:37:56.530Z,95994.53
2018-07-17T05:40:26.744Z,95996.25
2018-07-17T05:42:57.072Z,96001.48
2018-07-17T05:45:27.222Z,95998.00
2018-07-17T05:47:57.450Z,95998.75
2018-07-17T05:50:27.627Z,96003.30
2018-07-17T05:52:57.699Z,96002.84
2018-07-17T05:55:27.918Z,96004.33
2018-07-17T05:57:58.102Z,96006.59
2018-07-17T06:00:28.298Z,96007.37
2018-07-17T06:02:58.403Z,96007.55
2018-07-17T06:05:28.793Z,96011.42
2018-07-17T06:07:59.020Z,96015.59
2018-07-17T06:10:29.232Z,96009.39
2018-07-17T06:12:59.446Z,96007.73
2018-07-17T06:15:29.629Z,96007.83
2018-07-17T06:17:59.847Z,96013.08
2018-07-17T06:20:30.219Z,96009.79
2018-07-17T06:23:00.617Z,96016.06
2018-07-17T06:25:31.365Z,96019.94
2018-07-17T06:28:01.755Z,96016.63
2018-07-17T06:30:32.195Z,96022.86
2018-07-17T06:33:02.712Z,96021.27
2018-07-17T06:35:33.305Z,96017.97
2018-07-17T06:38:03.767Z,96013.94
2018-07-17T06:40:34.189Z,96015.06
2018-07-17T06:43:04.621Z,96015.75
2018-07-17T06:45:35.109Z,96013.45
2018-07-17T06:48:05.605Z,96022.83
2018-07-17T06:50:36.291Z,96012.09
2018-07-17T06:53:07.974Z,96018.95
2018-07-17T06:55:38.332Z,96012.55
2018-07-17T06:58:08.800Z,96023.30
2018-07-17T07:00:39.228Z,96024.27
2018-07-17T07:03:09.736Z,96018.83
2018-07-17T07:05:40.315Z,96013.49
2018-07-17T07:08:10.772Z,96008.36
2018-07-17T07:10:41.302Z,96015.48
2018-07-17T07:13:12.082Z,96014.83
2018-07-17T07:15:42.489Z,96015.22
2018-07-17T07:18:12.899Z,96014.88
2018-07-17T07:20:43.985Z,96014.72
2018-07-17T07:23:14.402Z,96014.02
2018-07-17T07:25:45.004Z,96017.70
2018-07-17T07:28:15.554Z,96023.13
2018-07-17T07:30:46.020Z,96020.56
2018-07-17T07:33:16.392Z,96024.41
2018-07-17T07:35:47.154Z,96021.63
2018-07-17T07:38:17.836Z,96032.06
2018-07-17T07:40:48.600Z,96033.30
2018-07-17T07:43:18.997Z,96036.04
2018-07-17T07:45:49.466Z,96024.39
2018-07-17T07:48:19.932Z,96026.46
2018-07-17T07:50:50.412Z,96029.26
2018-07-17T07:53:21.043Z,96028.88
2018-07-17T07:55:51.634Z,96024.88
2018-07-17T07:58:22.028Z,96029.55
2018-07-17T08:00:52.412Z,96028.41
2018-07-17T08:03:22.762Z,96033.89
2018-07-17T08:05:53.350Z,96032.16
2018-07-17T08:08:23.684Z,96034.55
2018-07-17T08:10:54.156Z,96034.48
2018-07-17T08:13:24.575Z,96038.07
2018-07-17T08:15:54.975Z,96046.48
2018-07-17T08:18:25.367Z,96041.76
2018-07-17T08:20:55.766Z,96044.73
2018-07-17T08:23:26.177Z,96050.96
2018-07-17T08:25:56.580Z,96052.14
2018-07-17T08:28:26.992Z,96056.84
2018-07-17T08:30:57.707Z,96058.91
2018-07-17T08:33:28.348Z,96063.75
2018-07-17T08:35:58.392Z,96059.54
2018-07-17T08:38:28.795Z,96068.70
2018-07-17T08:40:59.136Z,96060.77
2018-07-17T08:43:29.590Z,96065.24
2018-07-17T08:46:00.156Z,96060.47
2018-07-17T08:48:30.575Z,96070.19
2018-07-17T08:51:01.009Z,96073.44
2018-07-17T08:53:31.381Z,96070.23
2018-07-17T08:56:01.968Z,96071.62
2018-07-17T08:58:32.425Z,96073.05
2018-07-17T09:01:03.175Z,96072.40
2018-07-17T09:03:33.788Z,96070.31
2018-07-17T09:06:04.193Z,96078.13
2018-07-17T09:08:34.635Z,96069.22
2018-07-17T09:11:05.425Z,96080.78
2018-07-17T09:13:35.814Z,96079.78
2018-07-17T09:16:06.274Z,96074.16
2018-07-17T09:18:37.158Z,96078.25
2018-07-17T09:21:08.561Z,96080.30
2018-07-17T09:23:39.091Z,96077.03
2018-07-17T09:26:09.630Z,96077.31
2018-07-17T09:28:39.990Z,96074.39
2018-07-17T09:31:10.458Z,96069.83
2018-07-17T09:33:40.855Z,96069.03
2018-07-17T09:36:11.773Z,96065.55
2018-07-17T09:38:42.134Z,96062.16
2018-07-17T09:41:12.856Z,96063.98
2018-07-17T09:43:43.300Z,96064.58
2018-07-17T09:46:13.721Z,96065.38
2018-07-17T09:48:44.062Z,96063.86
2018-07-17T09:51:14.539Z,96068.41
2018-07-17T09:53:44.902Z,96065.66
2018-07-17T09:56:15.510Z,96062.62
2018-07-17T09:58:45.860Z,96057.70
2018-07-17T10:01:21.338Z,96062.00
2018-07-17T10:03:51.745Z,96066.98
2018-07-17T10:06:22.237Z,96062.78
2018-07-17T10:08:52.493Z,96062.12
2018-07-17T10:11:22.895Z,96062.48
2018-07-17T10:13:53.332Z,96062.19
2018-07-17T10:16:23.560Z,96057.91
2018-07-17T10:18:53.696Z,96056.97
2018-07-17T10:21:23.863Z,96056.45
2018-07-17T10:23:54.063Z,96054.03
2018-07-17T10:26:24.446Z,96052.52
2018-07-17T10:28:54.575Z,96045.23
2018-07-17T10:31:24.803Z,96038.11
2018-07-17T10:33:54.863Z,96034.02
2018-07-17T10:36:25.126Z,96026.45
2018-07-17T10:38:55.255Z,96029.66
2018-07-17T10:41:25.327Z,96030.20
2018-07-17T10:43:55.430Z,96026.39
2018-07-17T10:47:54.869Z,96017.50
2018-07-17T10:50:24.960Z,96018.14
2018-07-17T10:52:55.049Z,96017.82
2018-07-17T10:55:25.137Z,96016.09
2018-07-17T10:57:55.470Z,96013.55
2018-07-17T11:00:25.580Z,96006.60
2018-07-17T11:02:55.694Z,96018.05
2018-07-17T11:05:25.766Z,96018.41
2018-07-17T11:07:55.868Z,96020.77
2018-07-17T11:10:25.973Z,96017.03
2018-07-17T11:12:56.077Z,96016.30
2018-07-17T11:15:26.247Z,96021.25
2018-07-17T11:17:56.345Z,96015.06
2018-07-17T11:20:26.437Z,96010.70
2018-07-17T11:22:56.553Z,96021.54
2018-07-17T11:25:26.887Z,96025.19
2018-07-17T11:27:56.988Z,96027.84
2018-07-17T11:30:27.105Z,96023.17
2018-07-17T11:32:57.229Z,96023.80
2018-07-17T11:35:27.321Z,96019.59
2018-07-17T11:37:57.400Z,96026.95
2018-07-17T11:40:27.812Z,96040.23
2018-07-17T11:42:58.198Z,96063.77
2018-07-17T11:45:28.566Z,96056.30
2018-07-17T11:47:58.930Z,96077.82
2018-07-17T11:50:29.867Z,96089.06
2018-07-17T11:53:00.264Z,96126.01
2018-07-17T11:55:31.277Z,96153.14
2018-07-17T11:58:02.215Z,96148.19
2018-07-17T12:00:32.600Z,96130.42
2018-07-17T12:03:03.084Z,96100.42
2018-07-17T12:05:33.610Z,96089.66
2018-07-17T12:08:04.311Z,96089.07
2018-07-17T12:10:34.695Z,96079.30
2018-07-17T12:13:05.167Z,96066.73
2018-07-17T12:15:35.778Z,96059.34
2018-07-17T12:18:06.600Z,96065.45
2018-07-17T12:20:37.206Z,96052.22
2018-07-17T12:23:07.744Z,96055.38
2018-07-17T12:25:38.140Z,96057.06
2018-07-17T12:28:09.110Z,96059.65
2018-07-17T12:30:42.279Z,96053.83
2018-07-17T12:33:12.866Z,96061.66
2018-07-17T12:35:43.331Z,96056.73
2018-07-17T12:38:14.043Z,96055.13
2018-07-17T12:40:44.438Z,96062.38
2018-07-17T12:43:14.916Z,96051.13
2018-07-17T12:45:46.673Z,96046.95
2018-07-17T12:48:17.099Z,96045.60
2018-07-17T12:50:47.849Z,96040.98
2018-07-17T12:53:18.264Z,96047.48
2018-07-17T12:55:49.789Z,96038.81
2018-07-17T12:58:20.633Z,96040.58
2018-07-17T13:00:51.027Z,96040.53
2018-07-17T13:03:21.433Z,96037.86
2018-07-17T13:05:51.929Z,96032.84
2018-07-17T13:08:22.323Z,96026.79
2018-07-17T13:10:52.702Z,96029.73
2018-07-17T13:13:23.101Z,96028.91
2018-07-17T13:15:53.609Z,96027.98
2018-07-17T13:18:24.127Z,96027.32
2018-07-17T13:20:54.711Z,96030.28
2018-07-17T13:24:22.292Z,96033.51
2018-07-17T13:26:52.728Z,96023.05
2018-07-17T13:29:23.262Z,96021.80
2018-07-17T13:31:53.661Z,96019.14
2018-07-17T13:34:24.466Z,96015.80
2018-07-17T13:36:55.067Z,96012.83
2018-07-17T13:39:25.599Z,96019.09
2018-07-17T13:41:56.397Z,96015.67
2018-07-17T13:44:27.113Z,96014.48
2018-07-17T13:46:57.585Z,96023.51
2018-07-17T13:50:21.148Z,96024.55
2018-07-17T13:52:52.654Z,96040.45
2018-07-17T13:55:23.255Z,96047.06
2018-07-17T13:57:54.088Z,96042.69
2018-07-17T14:00:24.648Z,96048.43
2018-07-17T14:02:55.016Z,96057.95
2018-07-17T14:05:25.458Z,96074.50
2018-07-17T14:07:55.955Z,96069.81
2018-07-17T14:10:26.534Z,96065.80
2018-07-17T14:12:57.153Z,96070.78
2018-07-17T14:15:27.590Z,96083.79
2018-07-17T14:17:57.988Z,96076.73
2018-07-17T14:20:28.432Z,96090.98
2018-07-17T14:22:59.304Z,96081.38
2018-07-17T14:25:29.340Z,96074.59
2018-07-17T14:27:59.748Z,96078.40
2018-07-17T14:30:30.115Z,96079.91
2018-07-17T14:33:00.423Z,96078.16
2018-07-17T14:35:30.890Z,96072.78
2018-07-17T14:38:01.328Z,96078.00
2018-07-17T14:40:31.737Z,96080.88
2018-07-17T14:43:02.186Z,96084.84
2018-07-17T14:45:32.619Z,96099.14
2018-07-17T14:48:03.025Z,96095.31
2018-07-17T14:50:33.481Z,96100.92
2018-07-17T14:53:03.933Z,96099.81
2018-07-17T14:56:22.192Z,96097.14
2018-07-17T14:58:52.552Z,96102.16
2018-07-17T15:01:23.251Z,96097.45
2018-07-17T15:03:53.585Z,96092.87
2018-07-17T15:06:24.050Z,96096.84
2018-07-17T15:08:54.598Z,96102.81
2018-07-17T15:11:25.039Z,96105.26
2018-07-17T15:13:55.443Z,96105.20
2018-07-17T15:16:26.203Z,96099.22
2018-07-17T15:18:56.890Z,96102.45
2018-07-17T15:21:27.583Z,96098.67
2018-07-17T15:23:57.973Z,96100.95
2018-07-17T15:26:28.681Z,96092.23
2018-07-17T15:28:59.140Z,96093.41
2018-07-17T15:31:29.569Z,96094.41
2018-07-17T15:33:59.975Z,96092.61
2018-07-17T15:36:30.501Z,96085.89
2018-07-17T15:39:00.915Z,96093.12
2018-07-17T15:45:07.972Z,96080.10
2018-07-17T15:47:37.959Z,96074.58
2018-07-17T15:50:08.387Z,96075.95
2018-07-17T15:52:38.734Z,96081.98
2018-07-17T15:55:09.379Z,96078.95
2018-07-17T15:57:39.787Z,96077.03
2018-07-17T16:00:10.513Z,96075.80
2018-07-17T16:02:41.039Z,96078.77
2018-07-17T16:05:11.449Z,96078.25
2018-07-17T16:07:42.147Z,96077.70
2018-07-17T16:10:12.517Z,96084.86
2018-07-17T16:12:42.965Z,96077.53
2018-07-17T16:15:13.053Z,96077.38
2018-07-17T16:17:45.900Z,96080.11
2018-07-17T16:20:16.617Z,96083.94
2018-07-17T16:22:47.088Z,96084.23
2018-07-17T16:25:17.498Z,96076.20
2018-07-17T16:27:48.175Z,96073.17
2018-07-17T16:30:18.571Z,96070.88
2018-07-17T16:32:50.656Z,96067.25
2018-07-17T16:35:21.029Z,96062.33
2018-07-17T16:37:52.185Z,96061.41
2018-07-17T16:40:24.027Z,96064.37
2018-07-17T16:42:54.425Z,96064.12
2018-07-17T16:45:25.461Z,96053.75
2018-07-17T16:47:56.622Z,96051.13
2018-07-17T16:50:27.743Z,96051.44
2018-07-17T16:52:58.422Z,96051.07
2018-07-17T16:55:29.845Z,96041.83
2018-07-17T16:58:00.215Z,96041.25
2018-07-17T17:00:30.562Z,96040.06
2018-07-17T17:03:01.296Z,96043.45
2018-07-17T17:05:32.826Z,96043.14
2018-07-17T17:08:03.284Z,96045.91
2018-07-17T17:10:35.116Z,96037.77
2018-07-17T17:13:07.332Z,96045.91
2018-07-17T17:15:39.050Z,96039.47
2018-07-17T17:18:09.481Z,96035.48
2018-07-17T17:20:41.258Z,96047.36
2018-07-17T17:23:12.893Z,96048.15
2018-07-17T17:25:43.365Z,96049.04
2018-07-17T17:28:14.052Z,96048.97
2018-07-17T17:30:44.456Z,96048.28
2018-07-17T17:33:14.953Z,96057.55
2018-07-17T17:35:45.392Z,96056.58
2018-07-17T17:38:15.808Z,96054.77
2018-07-17T17:40:46.194Z,96049.64
2018-07-17T17:43:16.703Z,96051.73
2018-07-17T17:45:47.466Z,96049.11
2018-07-17T17:48:17.822Z,96050.72
2018-07-17T17:50:48.210Z,96059.95
2018-07-17T17:53:18.582Z,96050.65
2018-07-17T17:55:48.929Z,96054.16
2018-07-17T17:58:19.236Z,96057.53
2018-07-17T18:00:50.168Z,96055.34
2018-07-17T18:03:20.899Z,96048.88
2018-07-17T18:05:51.263Z,96053.06
2018-07-17T18:08:22.032Z,96048.42
2018-07-17T18:10:52.723Z,96052.75
2018-07-17T18:13:23.121Z,96051.04
2018-07-17T18:15:53.839Z,96048.55
2018-07-17T18:18:24.593Z,96046.79
2018-07-17T18:20:54.908Z,96044.94
2018-07-17T18:23:25.513Z,96045.52
2018-07-17T18:25:55.933Z,96047.77
2018-07-17T18:28:26.423Z,96048.38
2018-07-17T18:30:56.833Z,96049.05
2018-07-17T18:33:27.215Z,96054.99
2018-07-17T18:35:58.143Z,96058.06
2018-07-17T18:38:28.647Z,96060.48
2018-07-17T18:40:58.959Z,96063.03
2018-07-17T18:43:29.253Z,96068.28
2018-07-17T18:45:59.567Z,96070.04
2018-07-17T18:48:29.939Z,96074.70
2018-07-17T18:51:00.203Z,96076.09
2018-07-17T18:53:30.829Z,96078.11
2018-07-17T18:56:01.160Z,96083.34
2018-07-17T18:58:31.534Z,96093.20
2018-07-17T19:01:01.830Z,96085.88
2018-07-17T19:03:32.163Z,96098.55
2018-07-17T19:06:02.647Z,96091.76
2018-07-17T19:08:33.214Z,96095.77
2018-07-17T19:11:03.623Z,96093.02
2018-07-17T19:13:34.018Z,96092.28
2018-07-17T19:16:05.395Z,96099.55
2018-07-17T19:18:35.754Z,96096.34
2018-07-17T19:21:06.141Z,96098.22
2018-07-17T19:23:36.531Z,96102.12
2018-07-17T19:26:07.221Z,96109.55
2018-07-17T19:28:38.469Z,96111.12
2018-07-17T19:31:09.608Z,96115.16
2018-07-17T19:33:39.983Z,96116.55
2018-07-17T19:36:10.347Z,96123.36
2018-07-17T19:38:40.739Z,96123.19
2018-07-17T19:41:12.299Z,96129.36
2018-07-17T19:43:42.809Z,96135.07
2018-07-17T19:46:14.648Z,96132.77
2018-07-17T19:48:45.177Z,96137.39
2018-07-17T19:51:16.721Z,96140.03
2018-07-17T19:53:47.498Z,96146.49
2018-07-17T19:56:19.342Z,96145.73
2018-07-17T19:58:49.753Z,96150.36
2018-07-17T20:01:20.225Z,96163.76
2018-07-17T20:03:55.457Z,96165.69
2018-07-17T20:06:27.437Z,96168.63
2018-07-17T20:08:58.099Z,96173.97
2018-07-17T20:11:28.491Z,96174.05
2018-07-17T20:13:58.859Z,96174.77
2018-07-17T20:16:29.269Z,96172.83
2018-07-17T20:18:59.597Z,96184.35
2018-07-17T20:21:30.361Z,96180.61
2018-07-17T20:24:00.808Z,96175.91
2018-07-17T20:26:31.781Z,96173.63
2018-07-17T20:29:03.045Z,96171.31
2018-07-17T20:31:34.416Z,96173.49
2018-07-17T20:34:04.835Z,96178.55
2018-07-17T20:36:35.316Z,96171.03
2018-07-17T20:39:08.078Z,96179.36
2018-07-17T20:41:38.805Z,96179.41
2018-07-17T20:44:09.203Z,96175.85
2018-07-17T20:46:40.025Z,96176.33
2018-07-17T20:49:10.581Z,96180.20
2018-07-17T20:51:41.252Z,96182.06
2018-07-17T20:54:11.956Z,96183.52
2018-07-17T20:56:42.314Z,96191.45
2018-07-17T20:59:12.984Z,96193.41
2018-07-17T21:01:43.396Z,96193.27
2018-07-17T21:04:14.380Z,96193.81
2018-07-17T21:06:44.813Z,96192.13
2018-07-17T21:09:15.277Z,96193.48
2018-07-17T21:11:45.628Z,96196.98
2018-07-17T21:14:16.024Z,96201.46
2018-07-17T21:16:46.490Z,96198.08
2018-07-17T21:19:16.946Z,96204.49
2018-07-17T21:21:47.328Z,96201.41
2018-07-17T21:24:18.887Z,96207.75
2018-07-17T21:26:49.405Z,96203.59
2018-07-17T21:29:19.736Z,96201.52
2018-07-17T21:31:50.390Z,96199.91
2018-07-17T21:34:21.514Z,96209.31
2018-07-17T21:36:51.927Z,96204.58
2018-07-17T21:39:22.275Z,96202.73
2018-07-17T21:41:52.710Z,96208.95
2018-07-17T21:44:23.508Z,96220.61
2018-07-17T21:46:53.874Z,96208.77
2018-07-17T21:49:24.842Z,96212.89
2018-07-17T21:51:55.302Z,96212.80
2018-07-17T21:54:25.628Z,96208.02
2018-07-17T21:56:55.968Z,96209.71
2018-07-17T21:59:26.415Z,96209.54
2018-07-17T22:01:56.758Z,96211.99
2018-07-17T22:04:27.126Z,96223.64
2018-07-17T22:06:58.026Z,96224.34
2018-07-17T22:09:28.682Z,96228.25
2018-07-17T22:11:59.051Z,96224.55
2018-07-17T22:14:29.538Z,96225.44
2018-07-17T22:17:00.062Z,96230.87
2018-07-17T22:19:30.412Z,96229.45
2018-07-17T22:22:00.754Z,96223.17
2018-07-17T22:24:33.138Z,96225.72
2018-07-17T22:27:03.625Z,96229.50
2018-07-17T22:29:34.434Z,96234.03
2018-07-17T22:32:04.867Z,96233.90
2018-07-17T22:34:35.349Z,96227.34
2018-07-17T22:37:05.765Z,96231.87
2018-07-17T22:39:36.294Z,96225.84
2018-07-17T22:42:06.842Z,96225.28
2018-07-17T22:44:37.752Z,96220.85
2018-07-17T22:47:08.090Z,96223.30
2018-07-17T22:49:38.430Z,96214.13
2018-07-17T22:52:09.699Z,96207.27
2018-07-17T22:54:40.050Z,96204.23
2018-07-17T22:57:10.732Z,96210.09
2018-07-17T22:59:41.195Z,96202.08
2018-07-17T23:02:14.433Z,96199.59
2018-07-17T23:04:45.140Z,96191.12
2018-07-17T23:07:15.767Z,96195.65
2018-07-17T23:09:46.094Z,96187.53
2018-07-17T23:12:16.727Z,96183.77
2018-07-17T23:14:47.232Z,96182.11
2018-07-17T23:17:17.582Z,96186.39
2018-07-17T23:19:47.929Z,96192.86
2018-07-17T23:22:25.606Z,96183.47
2018-07-17T23:24:55.914Z,96187.29
2018-07-17T23:27:26.394Z,96192.09
2018-07-17T23:29:56.750Z,96190.03
2018-07-17T23:32:27.104Z,96192.69
2018-07-17T23:34:57.474Z,96186.46
2018-07-17T23:37:28.441Z,96185.83
2018-07-17T23:39:58.859Z,96186.05
2018-07-17T23:42:29.226Z,96185.18
2018-07-17T23:44:59.570Z,96188.27
2018-07-17T23:47:29.874Z,96194.53
2018-07-17T23:50:00.197Z,96197.56
2018-07-17T23:52:30.497Z,96200.97
2018-07-17T23:55:00.845Z,96204.16
2018-07-17T23:57:31.242Z,96200.56
